Time;durP1;ratioP1;P1;durP2;ratioP2;P2;SDS_P1;SDS_P2;PMS_P1;PMS_P2;Temp;Humidity;BMP_temperature;BMP_pressure;BME280_temperature;BME280_humidity;BME280_pressure;Samples;Min_cycle;Max_cycle;Signal;HPM_P1;HPM_P2
2023/05/15 00:00:11;;;;;;;1.90;1.80;;;;;;;;;;521929;28;1904;-76
2023/05/15 00:00:26;;;;;;;2.90;1.90;;;;;;;;;;521331;28;1167;-75
2023/05/15 00:00:44;;;;;;;3.30;1.90;;;;;;;;;;523105;28;1201;-76
2023/05/15 00:00:59;;;;;;;2.38;1.73;;;;;;;;;;525613;28;1303;-77
2023/05/15 00:01:15;;;;;;;2.37;1.70;;;;;;;;;;524326;28;1198;-75
2023/05/15 00:01:30;;;;;;;3.08;1.90;;;;;;;;;;526136;28;1254;-76
2023/05/15 00:01:45;;;;;;;3.00;2.10;;;;;;;;;;526274;28;1114;-75
2023/05/15 00:02:00;;;;;;;2.40;1.90;;;;;;;;;;524791;28;1312;-76
2023/05/15 00:02:16;;;;;;;2.43;1.80;;;;;;;;;;524426;28;1264;-75
2023/05/15 00:02:33;;;;;;;2.60;1.87;;;;;;;;;;524278;28;1199;-75
2023/05/15 00:02:50;;;;;;;2.67;1.90;;;;;;;;;;522740;28;1029;-75
2023/05/15 00:03:06;;;;;;;2.60;2.03;;;;;;;;;;522069;28;1425;-76
2023/05/15 00:03:21;;;;;;;3.07;2.03;;;;;;;;;;521918;28;1361;-76
2023/05/15 00:03:36;;;;;;;4.47;2.00;;;;;;;;;;520417;28;1255;-76
2023/05/15 00:03:51;;;;;;;4.17;2.07;;;;;;;;;;521755;28;1217;-75
2023/05/15 00:04:07;;;;;;;2.93;2.10;;;;;;;;;;521896;28;1154;-76
2023/05/15 00:04:22;;;;;;;2.73;2.20;;;;;;;;;;521564;28;1197;-76
2023/05/15 00:04:37;;;;;;;3.03;2.13;;;;;;;;;;522754;28;1063;-76
2023/05/15 00:04:52;;;;;;;3.40;2.00;;;;;;;;;;521773;28;1160;-77
2023/05/15 00:05:08;;;;;;;3.53;1.95;;;;;;;;;;524343;28;1308;-77
2023/05/15 00:05:23;;;;;;;3.17;2.10;;;;;;;;;;524692;28;1295;-76
2023/05/15 00:05:38;;;;;;;3.03;2.20;;;;;;;;;;525043;28;1285;-76
2023/05/15 00:05:53;;;;;;;3.47;2.03;;;;;;;;;;527033;28;1172;-76
2023/05/15 00:06:09;;;;;;;3.40;2.10;;;;;;;;;;525540;28;1266;-75
2023/05/15 00:06:24;;;;;;;2.77;2.03;;;;;;;;;;522474;28;1330;-76
2023/05/15 00:06:39;;;;;;;2.43;1.87;;;;;;;;;;522627;28;1242;-76
2023/05/15 00:06:54;;;;;;;2.80;2.00;;;;;;;;;;522909;28;1209;-76
2023/05/15 00:07:09;;;;;;;3.45;1.98;;;;;;;;;;522187;28;1547;-76
2023/05/15 00:07:25;;;;;;;3.53;1.90;;;;;;;;;;522348;28;1315;-76
2023/05/15 00:07:40;;;;;;;2.33;1.90;;;;;;;;;;522932;28;1446;-76
2023/05/15 00:07:55;;;;;;;2.13;1.93;;;;;;;;;;524711;28;1157;-76
2023/05/15 00:08:11;;;;;;;2.65;2.00;;;;;;;;;;522553;28;1225;-76
2023/05/15 00:08:26;;;;;;;2.20;1.90;;;;;;;;;;520633;28;1244;-76
2023/05/15 00:08:41;;;;;;;2.10;1.90;;;;;;;;;;521348;28;1323;-76
2023/05/15 00:08:56;;;;;;;3.37;2.00;;;;;;;;;;518616;28;1338;-75
2023/05/15 00:09:11;;;;;;;3.72;2.10;;;;;;;;;;518519;28;1107;-75
2023/05/15 00:09:27;;;;;;;3.00;2.07;;;;;;;;;;519631;28;1264;-75
2023/05/15 00:09:42;;;;;;;3.70;2.13;;;;;;;;;;520718;28;1260;-76
2023/05/15 00:09:57;;;;;;;3.20;2.17;;;;;;;;;;520459;28;1572;-76
2023/05/15 00:10:12;;;;;;;3.00;2.10;;;;;;;;;;520174;28;1318;-77
2023/05/15 00:10:27;;;;;;;3.80;2.20;;;;;;;;;;523042;28;1346;-76
2023/05/15 00:10:43;;;;;;;3.07;2.20;;;;;;;;;;521781;28;1161;-75
2023/05/15 00:10:58;;;;;;;3.63;2.20;;;;;;;;;;520564;28;1205;-75
2023/05/15 00:11:13;;;;;;;4.20;2.23;;;;;;;;;;520698;28;1229;-76
2023/05/15 00:11:28;;;;;;;3.47;2.20;;;;;;;;;;520339;28;1194;-75
2023/05/15 00:11:43;;;;;;;3.85;2.17;;;;;;;;;;519995;28;1175;-75
2023/05/15 00:11:59;;;;;;;4.43;2.20;;;;;;;;;;520469;28;1353;-76
2023/05/15 00:12:14;;;;;;;3.33;2.20;;;;;;;;;;520981;28;1438;-76
2023/05/15 00:12:29;;;;;;;2.67;2.13;;;;;;;;;;523627;28;1142;-76
2023/05/15 00:12:44;;;;;;;3.40;2.10;;;;;;;;;;525799;28;1158;-76
2023/05/15 00:13:00;;;;;;;2.93;2.13;;;;;;;;;;521697;28;1143;-76
2023/05/15 00:13:16;;;;;;;2.80;2.20;;;;;;;;;;523771;28;1165;-76
2023/05/15 00:13:31;;;;;;;3.55;2.20;;;;;;;;;;524359;28;1174;-75
2023/05/15 00:13:46;;;;;;;3.70;2.10;;;;;;;;;;525789;28;1140;-77
2023/05/15 00:14:01;;;;;;;2.85;2.00;;;;;;;;;;526783;28;1157;-76
2023/05/15 00:14:16;;;;;;;3.00;2.10;;;;;;;;;;526249;28;1352;-75
2023/05/15 00:14:32;;;;;;;3.60;2.23;;;;;;;;;;524843;28;1167;-76
2023/05/15 00:14:47;;;;;;;2.90;2.10;;;;;;;;;;525554;28;1203;-76
2023/05/15 00:15:02;;;;;;;3.10;2.13;;;;;;;;;;522903;28;1361;-75
2023/05/15 00:15:17;;;;;;;4.15;2.20;;;;;;;;;;523039;28;1369;-75
2023/05/15 00:15:32;;;;;;;3.53;2.10;;;;;;;;;;522420;28;1222;-76
2023/05/15 00:15:48;;;;;;;3.43;2.10;;;;;;;;;;523448;28;1181;-76
2023/05/15 00:16:07;;;;;;;5.10;2.20;;;;;;;;;;521422;28;1215;-76
2023/05/15 00:16:23;;;;;;;4.03;2.30;;;;;;;;;;523704;28;1067;-76
2023/05/15 00:16:40;;;;;;;2.30;2.08;;;;;;;;;;522953;28;1083;-75
2023/05/15 00:16:55;;;;;;;2.20;1.90;;;;;;;;;;522969;28;1301;-75
2023/05/15 00:17:11;;;;;;;3.70;2.10;;;;;;;;;;522587;28;1251;-75
2023/05/15 00:17:26;;;;;;;6.17;2.27;;;;;;;;;;522809;28;1150;-75
2023/05/15 00:17:41;;;;;;;6.28;2.20;;;;;;;;;;523726;28;1281;-76
2023/05/15 00:17:56;;;;;;;4.10;2.10;;;;;;;;;;524504;28;1185;-76
2023/05/15 00:18:12;;;;;;;2.63;2.20;;;;;;;;;;524669;28;1222;-76
2023/05/15 00:18:27;;;;;;;2.60;2.30;;;;;;;;;;524982;28;1138;-75
2023/05/15 00:18:42;;;;;;;2.67;2.10;;;;;;;;;;524953;28;1189;-77
2023/05/15 00:18:57;;;;;;;2.85;2.10;;;;;;;;;;525178;28;1223;-75
2023/05/15 00:19:13;;;;;;;3.47;2.20;;;;;;;;;;524964;28;1277;-76
2023/05/15 00:19:28;;;;;;;4.23;2.10;;;;;;;;;;522556;28;1380;-77
2023/05/15 00:19:44;;;;;;;4.30;2.20;;;;;;;;;;521773;28;1308;-76
2023/05/15 00:19:59;;;;;;;4.28;2.40;;;;;;;;;;521357;28;1907;-76
2023/05/15 00:20:15;;;;;;;3.87;2.40;;;;;;;;;;522890;28;1157;-76
2023/05/15 00:20:30;;;;;;;3.00;2.20;;;;;;;;;;522628;28;1313;-75
2023/05/15 00:20:45;;;;;;;3.07;2.17;;;;;;;;;;520488;28;1304;-75
2023/05/15 00:21:00;;;;;;;3.33;1.97;;;;;;;;;;522820;28;1259;-76
2023/05/15 00:21:16;;;;;;;3.78;2.03;;;;;;;;;;522251;28;1178;-76
2023/05/15 00:21:31;;;;;;;4.33;2.30;;;;;;;;;;523226;28;1133;-76
2023/05/15 00:21:46;;;;;;;3.17;2.20;;;;;;;;;;523609;28;1227;-76
2023/05/15 00:22:01;;;;;;;2.78;2.00;;;;;;;;;;519465;28;1300;-76
2023/05/15 00:22:16;;;;;;;3.50;2.13;;;;;;;;;;522116;28;1323;-76
2023/05/15 00:22:31;;;;;;;3.77;2.20;;;;;;;;;;518923;28;1211;-76
2023/05/15 00:22:47;;;;;;;3.90;2.10;;;;;;;;;;520869;28;1208;-75
2023/05/15 00:23:02;;;;;;;3.03;2.10;;;;;;;;;;520796;28;1326;-75
2023/05/15 00:23:17;;;;;;;2.80;2.07;;;;;;;;;;520656;28;1273;-76
2023/05/15 00:23:32;;;;;;;3.17;2.03;;;;;;;;;;520571;28;1314;-75
2023/05/15 00:23:47;;;;;;;3.33;2.20;;;;;;;;;;520792;28;1083;-75
2023/05/15 00:24:03;;;;;;;3.33;2.23;;;;;;;;;;520628;28;1303;-75
2023/05/15 00:24:18;;;;;;;2.97;2.13;;;;;;;;;;523612;28;1204;-75
2023/05/15 00:24:33;;;;;;;2.58;2.22;;;;;;;;;;524699;28;1103;-75
2023/05/15 00:24:48;;;;;;;3.40;2.30;;;;;;;;;;522102;28;1317;-76
2023/05/15 00:25:04;;;;;;;4.20;2.30;;;;;;;;;;522880;28;1381;-75
2023/05/15 00:25:19;;;;;;;4.30;2.33;;;;;;;;;;522606;28;1393;-75
2023/05/15 00:25:34;;;;;;;4.07;2.23;;;;;;;;;;522618;28;1188;-76
2023/05/15 00:25:49;;;;;;;4.23;2.30;;;;;;;;;;522909;28;1106;-76
2023/05/15 00:26:05;;;;;;;4.83;2.20;;;;;;;;;;520647;28;1137;-75
2023/05/15 00:26:22;;;;;;;5.47;2.10;;;;;;;;;;522319;28;1286;-77
2023/05/15 00:26:37;;;;;;;4.65;2.22;;;;;;;;;;523235;28;1193;-76
2023/05/15 00:26:52;;;;;;;3.97;2.10;;;;;;;;;;525210;28;1198;-76
2023/05/15 00:27:07;;;;;;;3.60;2.20;;;;;;;;;;522662;28;1536;-76
2023/05/15 00:27:22;;;;;;;2.93;2.23;;;;;;;;;;523761;28;1295;-76
2023/05/15 00:27:37;;;;;;;2.73;2.20;;;;;;;;;;520752;28;1526;-76
2023/05/15 00:27:53;;;;;;;3.77;2.30;;;;;;;;;;520590;28;1152;-76
2023/05/15 00:28:08;;;;;;;3.90;2.40;;;;;;;;;;520641;28;1145;-76
2023/05/15 00:28:23;;;;;;;2.93;2.40;;;;;;;;;;522219;28;1205;-76
2023/05/15 00:28:38;;;;;;;2.90;2.30;;;;;;;;;;521874;28;1244;-75
2023/05/15 00:28:54;;;;;;;4.07;2.13;;;;;;;;;;522802;28;1210;-76
2023/05/15 00:29:09;;;;;;;3.90;2.10;;;;;;;;;;522893;28;1193;-76
2023/05/15 00:29:24;;;;;;;2.60;2.10;;;;;;;;;;524637;28;1181;-76
2023/05/15 00:29:39;;;;;;;2.73;2.03;;;;;;;;;;522684;28;1195;-76
2023/05/15 00:29:55;;;;;;;2.63;2.10;;;;;;;;;;523964;28;1236;-76
2023/05/15 00:30:10;;;;;;;2.70;2.07;;;;;;;;;;522965;28;1314;-76
2023/05/15 00:30:25;;;;;;;3.30;2.20;;;;;;;;;;519826;28;1198;-76
2023/05/15 00:30:40;;;;;;;4.80;2.30;;;;;;;;;;518900;28;1288;-75
2023/05/15 00:30:56;;;;;;;4.20;2.30;;;;;;;;;;519622;28;1361;-76
2023/05/15 00:31:13;;;;;;;3.20;2.10;;;;;;;;;;521764;28;1331;-76
2023/05/15 00:31:28;;;;;;;4.13;2.22;;;;;;;;;;522278;28;1219;-75
2023/05/15 00:31:43;;;;;;;3.57;2.33;;;;;;;;;;521713;28;1237;-75
2023/05/15 00:31:59;;;;;;;3.03;2.17;;;;;;;;;;520467;28;1372;-76
2023/05/15 00:32:14;;;;;;;2.80;2.10;;;;;;;;;;521179;28;1221;-76
2023/05/15 00:32:29;;;;;;;2.78;2.22;;;;;;;;;;522337;28;1161;-76
2023/05/15 00:32:44;;;;;;;2.80;2.20;;;;;;;;;;522380;28;1220;-77
2023/05/15 00:33:00;;;;;;;2.60;1.97;;;;;;;;;;523225;28;1206;-77
2023/05/15 00:33:15;;;;;;;4.20;2.00;;;;;;;;;;524698;28;1184;-75
2023/05/15 00:33:30;;;;;;;4.43;1.98;;;;;;;;;;525330;28;1164;-76
2023/05/15 00:33:46;;;;;;;3.17;2.00;;;;;;;;;;524850;28;1361;-75
2023/05/15 00:34:01;;;;;;;2.72;2.10;;;;;;;;;;526927;28;1113;-76
2023/05/15 00:34:16;;;;;;;2.73;2.10;;;;;;;;;;524169;28;1436;-76
2023/05/15 00:34:31;;;;;;;2.57;2.00;;;;;;;;;;522153;28;1275;-76
2023/05/15 00:34:47;;;;;;;3.03;1.93;;;;;;;;;;521707;28;1311;-76
2023/05/15 00:35:03;;;;;;;3.17;2.03;;;;;;;;;;522771;28;1466;-76
2023/05/15 00:35:18;;;;;;;2.60;2.17;;;;;;;;;;522684;28;1257;-76
2023/05/15 00:35:33;;;;;;;2.53;2.20;;;;;;;;;;522962;28;1253;-75
2023/05/15 00:35:48;;;;;;;2.70;2.05;;;;;;;;;;524432;28;1222;-76
2023/05/15 00:36:03;;;;;;;3.03;2.10;;;;;;;;;;522360;28;1308;-75
2023/05/15 00:36:20;;;;;;;3.60;2.13;;;;;;;;;;522715;28;1071;-75
2023/05/15 00:36:35;;;;;;;3.25;2.00;;;;;;;;;;520944;28;1291;-75
2023/05/15 00:36:50;;;;;;;3.00;2.10;;;;;;;;;;520509;28;1199;-76
2023/05/15 00:37:07;;;;;;;2.80;2.10;;;;;;;;;;520728;28;1358;-76
2023/05/15 00:37:22;;;;;;;2.58;2.20;;;;;;;;;;521628;28;1119;-76
2023/05/15 00:37:37;;;;;;;3.63;2.30;;;;;;;;;;520413;28;1408;-75
2023/05/15 00:37:52;;;;;;;4.73;2.30;;;;;;;;;;521043;28;1357;-75
2023/05/15 00:38:08;;;;;;;4.10;2.40;;;;;;;;;;522054;28;1206;-76
2023/05/15 00:38:23;;;;;;;3.70;2.20;;;;;;;;;;521925;28;1334;-75
2023/05/15 00:38:38;;;;;;;3.87;1.97;;;;;;;;;;522258;28;1201;-76
2023/05/15 00:38:54;;;;;;;2.57;1.80;;;;;;;;;;521639;28;1299;-75
2023/05/15 00:39:09;;;;;;;2.03;1.83;;;;;;;;;;520524;28;1371;-76
2023/05/15 00:39:24;;;;;;;3.08;2.00;;;;;;;;;;521831;28;1499;-76
2023/05/15 00:39:39;;;;;;;2.73;1.90;;;;;;;;;;521100;28;1272;-76
2023/05/15 00:39:54;;;;;;;2.47;1.93;;;;;;;;;;522925;28;1185;-75
2023/05/15 00:40:11;;;;;;;2.30;2.00;;;;;;;;;;519510;28;1962;-76
2023/05/15 00:40:26;;;;;;;2.20;2.00;;;;;;;;;;519526;28;1278;-76
2023/05/15 00:40:45;;;;;;;3.20;2.00;;;;;;;;;;519908;28;1185;-76
2023/05/15 00:41:00;;;;;;;3.40;2.00;;;;;;;;;;516932;28;1484;-76
2023/05/15 00:41:16;;;;;;;2.10;1.90;;;;;;;;;;520748;28;1188;-75
2023/05/15 00:41:32;;;;;;;2.55;2.17;;;;;;;;;;520631;28;1503;-76
2023/05/15 00:41:48;;;;;;;3.80;2.25;;;;;;;;;;521535;28;1301;-76
2023/05/15 00:42:05;;;;;;;3.65;2.20;;;;;;;;;;523407;28;1050;-76
2023/05/15 00:42:22;;;;;;;2.58;2.03;;;;;;;;;;523829;28;1437;-76
2023/05/15 00:42:37;;;;;;;2.10;1.90;;;;;;;;;;522884;28;1275;-75
2023/05/15 00:42:53;;;;;;;2.30;2.10;;;;;;;;;;523583;28;1074;-76
2023/05/15 00:43:09;;;;;;;4.00;2.08;;;;;;;;;;523307;28;1357;-76
2023/05/15 00:43:25;;;;;;;4.32;2.03;;;;;;;;;;523600;28;1059;-76
2023/05/15 00:43:41;;;;;;;3.03;2.20;;;;;;;;;;524839;28;1246;-76
2023/05/15 00:43:56;;;;;;;2.95;2.17;;;;;;;;;;522755;28;1294;-75
2023/05/15 00:44:11;;;;;;;3.72;2.20;;;;;;;;;;521889;28;1246;-75
2023/05/15 00:44:27;;;;;;;4.00;2.37;;;;;;;;;;521140;28;1219;-76
2023/05/15 00:44:42;;;;;;;2.72;2.30;;;;;;;;;;522263;28;1280;-76
2023/05/15 00:44:59;;;;;;;2.30;2.10;;;;;;;;;;522741;28;1248;-76
2023/05/15 00:45:15;;;;;;;3.05;2.00;;;;;;;;;;524850;28;1327;-76
2023/05/15 00:45:30;;;;;;;3.50;2.20;;;;;;;;;;525169;28;1274;-75
2023/05/15 00:45:46;;;;;;;3.20;2.20;;;;;;;;;;522053;28;1191;-76
2023/05/15 00:46:01;;;;;;;3.35;2.20;;;;;;;;;;521927;28;1334;-75
2023/05/15 00:46:18;;;;;;;5.03;2.30;;;;;;;;;;522955;28;1098;-76
2023/05/15 00:46:34;;;;;;;4.43;2.30;;;;;;;;;;520697;28;1385;-77
2023/05/15 00:46:50;;;;;;;2.58;2.20;;;;;;;;;;520686;28;1409;-77
2023/05/15 00:47:06;;;;;;;2.25;2.05;;;;;;;;;;523088;28;1366;-75
2023/05/15 00:47:22;;;;;;;2.17;1.90;;;;;;;;;;521789;28;1278;-76
2023/05/15 00:47:39;;;;;;;2.40;2.00;;;;;;;;;;523579;28;1453;-76
2023/05/15 00:47:54;;;;;;;3.10;2.00;;;;;;;;;;523761;28;1386;-75
2023/05/15 00:48:10;;;;;;;2.90;2.10;;;;;;;;;;523782;28;1382;-76
2023/05/15 00:48:26;;;;;;;2.30;2.10;;;;;;;;;;522251;28;1158;-77
2023/05/15 00:48:42;;;;;;;2.92;2.10;;;;;;;;;;521473;28;1066;-75
2023/05/15 00:48:58;;;;;;;3.20;2.13;;;;;;;;;;520106;28;1354;-76
2023/05/15 00:49:14;;;;;;;3.17;2.20;;;;;;;;;;521773;28;1315;-76
2023/05/15 00:49:31;;;;;;;2.70;2.00;;;;;;;;;;521677;28;1433;-75
2023/05/15 00:49:48;;;;;;;2.13;1.80;;;;;;;;;;524402;28;1232;-76
2023/05/15 00:50:03;;;;;;;2.70;2.08;;;;;;;;;;520920;28;1238;-76
2023/05/15 00:50:18;;;;;;;2.90;2.20;;;;;;;;;;522621;28;1154;-76
2023/05/15 00:50:34;;;;;;;2.80;2.10;;;;;;;;;;519322;28;1233;-75
2023/05/15 00:50:53;;;;;;;3.83;2.35;;;;;;;;;;520262;28;1491;-76
2023/05/15 00:51:08;;;;;;;5.20;2.70;;;;;;;;;;521075;28;1192;-75
2023/05/15 00:51:24;;;;;;;4.73;2.80;;;;;;;;;;522114;28;1126;-76
2023/05/15 00:51:41;;;;;;;4.28;2.90;;;;;;;;;;523157;28;1106;-77
2023/05/15 00:51:57;;;;;;;4.13;2.90;;;;;;;;;;523829;28;1198;-76
2023/05/15 00:52:12;;;;;;;4.22;3.15;;;;;;;;;;523189;28;1363;-76
2023/05/15 00:52:28;;;;;;;4.47;3.33;;;;;;;;;;525151;28;1409;-75
2023/05/15 00:52:43;;;;;;;4.73;3.30;;;;;;;;;;524453;28;1409;-76
2023/05/15 00:52:59;;;;;;;4.77;3.20;;;;;;;;;;524182;28;1438;-75
2023/05/15 00:53:14;;;;;;;5.35;3.30;;;;;;;;;;524406;28;1238;-76
2023/05/15 00:53:30;;;;;;;6.27;3.20;;;;;;;;;;522638;28;1225;-76
2023/05/15 00:53:45;;;;;;;4.93;2.90;;;;;;;;;;523111;28;1252;-76
2023/05/15 00:54:01;;;;;;;4.37;2.80;;;;;;;;;;522775;28;1237;-75
2023/05/15 00:54:16;;;;;;;5.10;2.90;;;;;;;;;;524096;28;1696;-76
2023/05/15 00:54:31;;;;;;;3.83;2.80;;;;;;;;;;525006;28;1240;-76
2023/05/15 00:54:46;;;;;;;3.13;2.70;;;;;;;;;;526646;28;1106;-76
2023/05/15 00:55:02;;;;;;;3.73;2.80;;;;;;;;;;522376;28;1235;-76
2023/05/15 00:55:17;;;;;;;4.20;3.00;;;;;;;;;;520920;28;1398;-76
2023/05/15 00:55:34;;;;;;;4.27;3.10;;;;;;;;;;523514;28;1182;-76
2023/05/15 00:55:49;;;;;;;5.93;3.15;;;;;;;;;;519044;28;1513;-75
2023/05/15 00:56:05;;;;;;;6.00;3.35;;;;;;;;;;521801;28;1055;-76
2023/05/15 00:56:20;;;;;;;5.10;3.50;;;;;;;;;;522979;28;1138;-75
2023/05/15 00:56:36;;;;;;;5.00;3.50;;;;;;;;;;522126;28;1374;-76
2023/05/15 00:56:51;;;;;;;5.37;3.50;;;;;;;;;;521019;28;1190;-75
2023/05/15 00:57:07;;;;;;;4.80;3.27;;;;;;;;;;520625;28;1168;-76
2023/05/15 00:57:22;;;;;;;5.13;3.28;;;;;;;;;;520969;28;1366;-76
2023/05/15 00:57:38;;;;;;;6.53;3.47;;;;;;;;;;522151;28;1292;-75
2023/05/15 00:57:55;;;;;;;5.68;3.40;;;;;;;;;;524066;28;1009;-76
2023/05/15 00:58:10;;;;;;;4.78;3.00;;;;;;;;;;522637;28;1146;-76
2023/05/15 00:58:26;;;;;;;4.50;3.00;;;;;;;;;;523898;28;1216;-76
2023/05/15 00:58:41;;;;;;;5.45;3.13;;;;;;;;;;524763;28;1338;-76
2023/05/15 00:58:58;;;;;;;6.30;3.10;;;;;;;;;;524302;28;1181;-76
2023/05/15 00:59:14;;;;;;;5.35;3.08;;;;;;;;;;523578;28;1448;-76
2023/05/15 00:59:30;;;;;;;6.32;3.17;;;;;;;;;;523563;28;1189;-76
2023/05/15 00:59:46;;;;;;;5.77;3.13;;;;;;;;;;522744;28;1148;-76
2023/05/15 01:00:05;;;;;;;5.40;3.13;;;;;;;;;;522756;28;1977;-75
2023/05/15 01:00:21;;;;;;;5.05;3.00;;;;;;;;;;522971;28;1221;-76
2023/05/15 01:00:36;;;;;;;4.53;2.73;;;;;;;;;;524906;28;1074;-76
2023/05/15 01:00:52;;;;;;;5.15;2.78;;;;;;;;;;523278;28;1211;-75
2023/05/15 01:01:07;;;;;;;5.77;2.80;;;;;;;;;;523604;28;1137;-76
2023/05/15 01:01:24;;;;;;;4.95;2.85;;;;;;;;;;522496;28;1383;-75
2023/05/15 01:01:39;;;;;;;4.07;2.80;;;;;;;;;;521842;28;1366;-77
2023/05/15 01:01:54;;;;;;;3.77;2.90;;;;;;;;;;521239;28;1357;-75
2023/05/15 01:02:10;;;;;;;3.97;3.00;;;;;;;;;;520564;28;1167;-76
2023/05/15 01:02:25;;;;;;;4.87;2.90;;;;;;;;;;520609;28;1086;-76
2023/05/15 01:02:41;;;;;;;5.45;2.60;;;;;;;;;;519625;28;1401;-76
2023/05/15 01:02:56;;;;;;;5.27;2.70;;;;;;;;;;522724;28;1170;-75
2023/05/15 01:03:11;;;;;;;4.60;2.80;;;;;;;;;;521714;28;1291;-76
2023/05/15 01:03:26;;;;;;;4.23;2.80;;;;;;;;;;520229;28;1172;-76
2023/05/15 01:03:42;;;;;;;3.50;2.72;;;;;;;;;;520652;28;1150;-76
2023/05/15 01:03:58;;;;;;;3.60;2.70;;;;;;;;;;523452;28;1286;-75
2023/05/15 01:04:13;;;;;;;3.35;2.70;;;;;;;;;;521716;28;1302;-76
2023/05/15 01:04:28;;;;;;;4.00;2.80;;;;;;;;;;524710;28;1318;-75
2023/05/15 01:04:44;;;;;;;4.80;2.73;;;;;;;;;;523410;28;1118;-76
2023/05/15 01:04:59;;;;;;;3.70;2.60;;;;;;;;;;524194;28;1126;-75
2023/05/15 01:05:14;;;;;;;4.13;2.83;;;;;;;;;;523899;28;1177;-75
2023/05/15 01:05:30;;;;;;;4.07;2.88;;;;;;;;;;523307;28;1303;-77
2023/05/15 01:05:45;;;;;;;4.17;2.80;;;;;;;;;;524242;28;1294;-76
2023/05/15 01:06:00;;;;;;;5.37;2.80;;;;;;;;;;527303;28;1179;-77
2023/05/15 01:06:15;;;;;;;6.50;2.90;;;;;;;;;;527096;27;1197;-76
2023/05/15 01:06:30;;;;;;;6.88;2.90;;;;;;;;;;527293;28;1256;-75
2023/05/15 01:06:47;;;;;;;5.47;2.70;;;;;;;;;;525689;28;1487;-76
2023/05/15 01:07:03;;;;;;;4.93;2.70;;;;;;;;;;525775;28;1264;-76
2023/05/15 01:07:18;;;;;;;4.50;2.67;;;;;;;;;;525951;28;1206;-76
2023/05/15 01:07:36;;;;;;;3.77;2.50;;;;;;;;;;524555;28;1321;-76
2023/05/15 01:07:56;;;;;;;4.20;2.60;;;;;;;;;;523502;28;1262;-76
2023/05/15 01:08:36;;;;;;;3.75;2.60;;;;;;;;;;521854;28;1416;-76
2023/05/15 01:08:52;;;;;;;3.85;2.80;;;;;;;;;;523383;28;1348;-76
2023/05/15 01:09:08;;;;;;;3.55;2.80;;;;;;;;;;521622;28;1173;-76
2023/05/15 01:09:24;;;;;;;3.40;2.75;;;;;;;;;;521114;28;1308;-75
2023/05/15 01:09:42;;;;;;;3.33;2.60;;;;;;;;;;522162;28;1202;-76
2023/05/15 01:10:01;;;;;;;4.47;2.72;;;;;;;;;;523450;28;1185;-76
2023/05/15 01:10:17;;;;;;;5.95;2.90;;;;;;;;;;527855;28;1160;-76
2023/05/15 01:10:34;;;;;;;5.90;2.90;;;;;;;;;;526973;28;1073;-75
2023/05/15 01:10:50;;;;;;;5.72;3.00;;;;;;;;;;526683;28;1405;-75
2023/05/15 01:11:07;;;;;;;4.45;3.00;;;;;;;;;;526009;28;1157;-76
2023/05/15 01:11:23;;;;;;;4.47;2.95;;;;;;;;;;526086;28;1262;-76
2023/05/15 01:11:40;;;;;;;3.50;2.83;;;;;;;;;;526803;28;1273;-76
2023/05/15 01:11:56;;;;;;;3.70;2.88;;;;;;;;;;524198;28;1456;-76
2023/05/15 01:12:13;;;;;;;4.57;3.10;;;;;;;;;;522542;28;1315;-75
2023/05/15 01:12:28;;;;;;;3.97;2.92;;;;;;;;;;522561;28;1468;-76
2023/05/15 01:12:44;;;;;;;3.33;2.77;;;;;;;;;;522575;28;1339;-76
2023/05/15 01:13:01;;;;;;;3.55;2.70;;;;;;;;;;522828;28;1294;-76
2023/05/15 01:13:18;;;;;;;3.90;2.70;;;;;;;;;;522361;28;1221;-76
2023/05/15 01:13:33;;;;;;;3.78;2.58;;;;;;;;;;526954;28;1385;-77
2023/05/15 01:13:48;;;;;;;3.65;2.55;;;;;;;;;;524486;28;1198;-76
2023/05/15 01:14:05;;;;;;;3.57;2.60;;;;;;;;;;520775;28;1700;-76
2023/05/15 01:14:20;;;;;;;3.30;2.63;;;;;;;;;;521958;28;1363;-75
2023/05/15 01:14:35;;;;;;;3.53;2.73;;;;;;;;;;519556;28;1295;-75
2023/05/15 01:14:51;;;;;;;4.63;2.80;;;;;;;;;;519198;28;1030;-76
2023/05/15 01:15:06;;;;;;;4.33;2.70;;;;;;;;;;519809;28;1212;-76
2023/05/15 01:15:22;;;;;;;3.57;2.80;;;;;;;;;;519448;28;1288;-75
2023/05/15 01:15:37;;;;;;;4.05;2.90;;;;;;;;;;520449;28;1260;-76
2023/05/15 01:15:53;;;;;;;3.80;2.57;;;;;;;;;;521889;28;1183;-75
2023/05/15 01:16:08;;;;;;;3.30;2.40;;;;;;;;;;523014;28;1209;-76
2023/05/15 01:16:24;;;;;;;4.55;2.60;;;;;;;;;;525551;28;1243;-75
2023/05/15 01:16:40;;;;;;;5.43;2.57;;;;;;;;;;526166;28;1161;-75
2023/05/15 01:16:55;;;;;;;3.95;2.42;;;;;;;;;;525158;28;1304;-75
2023/05/15 01:17:10;;;;;;;4.45;2.38;;;;;;;;;;525680;28;1327;-76
2023/05/15 01:17:26;;;;;;;4.90;2.50;;;;;;;;;;526676;28;1138;-77
2023/05/15 01:17:41;;;;;;;3.17;2.60;;;;;;;;;;526192;28;1344;-75
2023/05/15 01:17:56;;;;;;;2.70;2.50;;;;;;;;;;526167;28;1271;-75
2023/05/15 01:18:11;;;;;;;4.13;2.60;;;;;;;;;;525998;28;1205;-76
2023/05/15 01:18:32;;;;;;;4.68;2.55;;;;;;;;;;524587;28;1312;-76
2023/05/15 01:18:48;;;;;;;3.50;2.47;;;;;;;;;;525264;28;1118;-75
2023/05/15 01:19:03;;;;;;;4.17;2.47;;;;;;;;;;523335;28;1199;-76
2023/05/15 01:19:19;;;;;;;4.85;2.60;;;;;;;;;;521228;28;1367;-76
2023/05/15 01:19:35;;;;;;;4.30;2.50;;;;;;;;;;525450;28;1263;-75
2023/05/15 01:19:51;;;;;;;3.13;2.40;;;;;;;;;;524919;28;1173;-75
2023/05/15 01:20:08;;;;;;;3.40;2.42;;;;;;;;;;524754;28;1938;-76
2023/05/15 01:20:23;;;;;;;4.10;2.40;;;;;;;;;;524041;28;1432;-75
2023/05/15 01:20:46;;;;;;;4.60;2.40;;;;;;;;;;522683;28;1175;-75
2023/05/15 01:21:04;;;;;;;2.40;2.20;;;;;;;;;;524013;28;1404;-75
2023/05/15 01:21:33;;;;;;;2.50;2.30;;;;;;;;;;525073;28;1322;-75
2023/05/15 01:22:07;;;;;;;4.35;2.47;;;;;;;;;;525398;28;1117;-75
2023/05/15 01:22:34;;;;;;;3.88;2.50;;;;;;;;;;525582;28;1302;-75
2023/05/15 01:22:52;;;;;;;3.85;2.53;;;;;;;;;;525190;28;1129;-75
2023/05/15 01:23:10;;;;;;;3.63;2.50;;;;;;;;;;524309;28;1063;-76
2023/05/15 01:23:44;;;;;;;3.33;2.50;;;;;;;;;;523029;28;1463;-75
2023/05/15 01:24:18;;;;;;;3.45;2.40;;;;;;;;;;526126;28;1341;-75
2023/05/15 01:24:41;;;;;;;2.72;2.42;;;;;;;;;;522125;28;1354;-76
2023/05/15 01:24:59;;;;;;;4.03;2.47;;;;;;;;;;522554;28;1123;-75
2023/05/15 01:25:53;;;;;;;2.50;2.30;;;;;;;;;;522401;28;1150;-75
2023/05/15 01:26:27;;;;;;;3.20;2.20;;;;;;;;;;522902;28;1070;-77
2023/05/15 01:26:51;;;;;;;3.05;2.17;;;;;;;;;;523119;28;1279;-76
2023/05/15 01:27:06;;;;;;;2.45;2.17;;;;;;;;;;520696;28;1233;-76
2023/05/15 01:27:26;;;;;;;2.30;2.10;;;;;;;;;;520379;28;1405;-76
2023/05/15 01:27:44;;;;;;;4.03;2.50;;;;;;;;;;520695;28;1110;-77
2023/05/15 01:28:05;;;;;;;4.40;2.70;;;;;;;;;;519354;28;1244;-76
2023/05/15 01:28:30;;;;;;;2.90;2.33;;;;;;;;;;520933;28;1129;-76
2023/05/15 01:29:06;;;;;;;4.47;2.40;;;;;;;;;;523001;28;1261;-76
2023/05/15 01:29:24;;;;;;;4.72;2.60;;;;;;;;;;521033;28;1476;-76
2023/05/15 01:29:39;;;;;;;4.32;2.40;;;;;;;;;;522862;28;1055;-75
2023/05/15 01:29:59;;;;;;;3.93;2.40;;;;;;;;;;520793;28;1160;-76
2023/05/15 01:30:21;;;;;;;4.65;2.45;;;;;;;;;;519603;28;1269;-76
2023/05/15 01:30:38;;;;;;;3.13;2.30;;;;;;;;;;518901;28;1646;-75
2023/05/15 01:30:54;;;;;;;3.08;2.40;;;;;;;;;;515913;28;1354;-77
2023/05/15 01:31:14;;;;;;;4.95;2.50;;;;;;;;;;516123;28;1301;-76
2023/05/15 01:31:31;;;;;;;5.35;2.60;;;;;;;;;;518005;28;1135;-75
2023/05/15 01:31:49;;;;;;;4.50;2.65;;;;;;;;;;517443;28;1363;-76
2023/05/15 01:32:17;;;;;;;3.70;2.55;;;;;;;;;;518694;28;1436;-76
2023/05/15 01:32:48;;;;;;;3.35;2.30;;;;;;;;;;515561;28;1231;-76
2023/05/15 01:33:23;;;;;;;4.30;2.58;;;;;;;;;;520051;28;1214;-76
2023/05/15 01:33:42;;;;;;;3.72;2.35;;;;;;;;;;519800;28;1299;-76
2023/05/15 01:34:01;;;;;;;3.10;2.58;;;;;;;;;;519606;28;1415;-76
2023/05/15 01:34:18;;;;;;;4.20;2.45;;;;;;;;;;519024;28;1496;-75
2023/05/15 01:34:41;;;;;;;4.03;2.50;;;;;;;;;;521058;28;1170;-76
2023/05/15 01:35:00;;;;;;;2.65;2.40;;;;;;;;;;521091;28;1106;-76
2023/05/15 01:35:20;;;;;;;2.83;2.30;;;;;;;;;;520304;28;1243;-76
2023/05/15 01:35:36;;;;;;;3.65;2.55;;;;;;;;;;517370;28;1183;-76
2023/05/15 01:35:51;;;;;;;4.50;2.67;;;;;;;;;;517991;28;1090;-76
2023/05/15 01:36:06;;;;;;;4.57;2.60;;;;;;;;;;519491;28;1062;-75
2023/05/15 01:36:25;;;;;;;4.30;2.53;;;;;;;;;;519174;28;1271;-76
2023/05/15 01:36:48;;;;;;;3.55;2.50;;;;;;;;;;518315;28;1382;-75
2023/05/15 01:37:05;;;;;;;4.00;2.50;;;;;;;;;;518278;28;1182;-76
2023/05/15 01:37:23;;;;;;;4.10;2.38;;;;;;;;;;517240;28;1522;-76
2023/05/15 01:37:40;;;;;;;4.07;2.38;;;;;;;;;;516999;28;1131;-75
2023/05/15 01:38:19;;;;;;;3.72;2.67;;;;;;;;;;519626;28;1150;-76
2023/05/15 01:38:38;;;;;;;3.58;2.50;;;;;;;;;;512980;28;1269;-76
2023/05/15 01:38:56;;;;;;;2.63;2.30;;;;;;;;;;511837;28;1175;-76
2023/05/15 01:39:13;;;;;;;3.55;2.42;;;;;;;;;;512159;28;1032;-77
2023/05/15 01:39:31;;;;;;;3.83;2.60;;;;;;;;;;510521;28;1335;-76
2023/05/15 01:39:48;;;;;;;5.20;2.65;;;;;;;;;;518331;28;1409;-76
2023/05/15 01:40:06;;;;;;;6.00;2.60;;;;;;;;;;517838;28;1983;-76
2023/05/15 01:40:23;;;;;;;3.67;2.55;;;;;;;;;;516529;28;1271;-76
2023/05/15 01:40:39;;;;;;;3.95;2.70;;;;;;;;;;518823;28;1530;-75
2023/05/15 01:41:14;;;;;;;3.58;2.55;;;;;;;;;;520991;28;1140;-75
2023/05/15 01:41:47;;;;;;;3.15;2.38;;;;;;;;;;519753;28;1351;-76
2023/05/15 01:42:06;;;;;;;3.05;2.25;;;;;;;;;;521936;28;1030;-76
2023/05/15 01:42:23;;;;;;;2.45;2.25;;;;;;;;;;521519;28;1406;-76
2023/05/15 01:42:42;;;;;;;2.90;2.30;;;;;;;;;;518922;28;1266;-77
2023/05/15 01:43:00;;;;;;;3.80;2.50;;;;;;;;;;516307;28;1357;-76
2023/05/15 01:43:17;;;;;;;3.53;2.50;;;;;;;;;;516501;28;1325;-76
2023/05/15 01:43:34;;;;;;;3.17;2.33;;;;;;;;;;515131;28;1325;-75
2023/05/15 01:43:54;;;;;;;3.65;2.28;;;;;;;;;;514844;28;1458;-76